sensor_id;sensor_type;location;lat;lon;timestamp;P1;durP1;ratioP1;P2;durP2;ratioP2
18224;SDS011;9237;48.590;8.854;2022-07-06T00:02:19;0.70;;;0.70;;
18224;SDS011;9237;48.590;8.854;2022-07-06T00:04:47;0.60;;;0.60;;
18224;SDS011;9237;48.590;8.854;2022-07-06T00:07:14;0.60;;;0.60;;
18224;SDS011;9237;48.590;8.854;2022-07-06T00:09:41;0.60;;;0.60;;
18224;SDS011;9237;48.590;8.854;2022-07-06T00:12:08;0.70;;;0.70;;
18224;SDS011;9237;48.590;8.854;2022-07-06T00:14:35;0.60;;;0.60;;
18224;SDS011;9237;48.590;8.854;2022-07-06T00:17:02;0.67;;;0.67;;
18224;SDS011;9237;48.590;8.854;2022-07-06T00:19:29;0.60;;;0.60;;
18224;SDS011;9237;48.590;8.854;2022-07-06T00:21:58;0.60;;;0.60;;
18224;SDS011;9237;48.590;8.854;2022-07-06T00:24:24;0.60;;;0.60;;
18224;SDS011;9237;48.590;8.854;2022-07-06T00:26:51;0.60;;;0.60;;
18224;SDS011;9237;48.590;8.854;2022-07-06T00:29:18;0.60;;;0.60;;
18224;SDS011;9237;48.590;8.854;2022-07-06T00:31:45;0.60;;;0.60;;
18224;SDS011;9237;48.590;8.854;2022-07-06T00:34:12;0.60;;;0.60;;
18224;SDS011;9237;48.590;8.854;2022-07-06T00:36:39;0.60;;;0.60;;
18224;SDS011;9237;48.590;8.854;2022-07-06T00:39:07;0.70;;;0.70;;
18224;SDS011;9237;48.590;8.854;2022-07-06T00:41:34;0.60;;;0.60;;
18224;SDS011;9237;48.590;8.854;2022-07-06T00:44:04;0.60;;;0.60;;
18224;SDS011;9237;48.590;8.854;2022-07-06T00:46:33;0.63;;;0.63;;
18224;SDS011;9237;48.590;8.854;2022-07-06T00:49:00;0.63;;;0.63;;
18224;SDS011;9237;48.590;8.854;2022-07-06T00:51:28;0.60;;;0.60;;
18224;SDS011;9237;48.590;8.854;2022-07-06T00:53:58;0.60;;;0.60;;
18224;SDS011;9237;48.590;8.854;2022-07-06T00:56:28;0.60;;;0.60;;
18224;SDS011;9237;48.590;8.854;2022-07-06T00:58:57;0.70;;;0.70;;
18224;SDS011;9237;48.590;8.854;2022-07-06T01:01:24;0.60;;;0.60;;
18224;SDS011;9237;48.590;8.854;2022-07-06T01:03:51;0.60;;;0.60;;
18224;SDS011;9237;48.590;8.854;2022-07-06T01:06:18;0.60;;;0.60;;
18224;SDS011;9237;48.590;8.854;2022-07-06T01:08:45;0.60;;;0.60;;
18224;SDS011;9237;48.590;8.854;2022-07-06T01:11:12;0.60;;;0.60;;
18224;SDS011;9237;48.590;8.854;2022-07-06T01:13:40;0.60;;;0.60;;
18224;SDS011;9237;48.590;8.854;2022-07-06T01:16:08;0.60;;;0.60;;
18224;SDS011;9237;48.590;8.854;2022-07-06T01:18:35;0.60;;;0.60;;
18224;SDS011;9237;48.590;8.854;2022-07-06T01:21:09;0.70;;;0.70;;
18224;SDS011;9237;48.590;8.854;2022-07-06T01:23:38;0.70;;;0.70;;
18224;SDS011;9237;48.590;8.854;2022-07-06T01:26:08;0.60;;;0.60;;
18224;SDS011;9237;48.590;8.854;2022-07-06T01:28:36;0.60;;;0.60;;
18224;SDS011;9237;48.590;8.854;2022-07-06T01:31:03;0.60;;;0.60;;
18224;SDS011;9237;48.590;8.854;2022-07-06T01:33:30;0.60;;;0.60;;
18224;SDS011;9237;48.590;8.854;2022-07-06T01:35:57;0.60;;;0.60;;
18224;SDS011;9237;48.590;8.854;2022-07-06T01:38:25;0.60;;;0.60;;
18224;SDS011;9237;48.590;8.854;2022-07-06T01:40:52;0.60;;;0.60;;
18224;SDS011;9237;48.590;8.854;2022-07-06T01:43:19;0.60;;;0.60;;
18224;SDS011;9237;48.590;8.854;2022-07-06T01:45:46;0.60;;;0.60;;
18224;SDS011;9237;48.590;8.854;2022-07-06T01:48:13;0.70;;;0.70;;
18224;SDS011;9237;48.590;8.854;2022-07-06T01:50:40;0.70;;;0.70;;
18224;SDS011;9237;48.590;8.854;2022-07-06T01:53:06;0.60;;;0.60;;
18224;SDS011;9237;48.590;8.854;2022-07-06T01:55:35;0.60;;;0.60;;
18224;SDS011;9237;48.590;8.854;2022-07-06T01:58:01;0.60;;;0.60;;
18224;SDS011;9237;48.590;8.854;2022-07-06T02:00:28;0.70;;;0.70;;
18224;SDS011;9237;48.590;8.854;2022-07-06T02:02:55;0.70;;;0.70;;
18224;SDS011;9237;48.590;8.854;2022-07-06T02:05:22;0.70;;;0.70;;
18224;SDS011;9237;48.590;8.854;2022-07-06T02:07:49;0.60;;;0.60;;
18224;SDS011;9237;48.590;8.854;2022-07-06T02:10:16;0.70;;;0.70;;
18224;SDS011;9237;48.590;8.854;2022-07-06T02:12:44;0.70;;;0.70;;
18224;SDS011;9237;48.590;8.854;2022-07-06T02:15:11;0.70;;;0.70;;
18224;SDS011;9237;48.590;8.854;2022-07-06T02:17:38;0.70;;;0.70;;
18224;SDS011;9237;48.590;8.854;2022-07-06T02:20:05;0.70;;;0.70;;
18224;SDS011;9237;48.590;8.854;2022-07-06T02:22:33;0.80;;;0.80;;
18224;SDS011;9237;48.590;8.854;2022-07-06T02:25:01;0.77;;;0.77;;
18224;SDS011;9237;48.590;8.854;2022-07-06T02:27:28;0.70;;;0.70;;
18224;SDS011;9237;48.590;8.854;2022-07-06T02:29:56;0.70;;;0.70;;
18224;SDS011;9237;48.590;8.854;2022-07-06T02:32:23;0.70;;;0.70;;
18224;SDS011;9237;48.590;8.854;2022-07-06T02:34:50;0.70;;;0.70;;
18224;SDS011;9237;48.590;8.854;2022-07-06T02:37:17;0.70;;;0.70;;
18224;SDS011;9237;48.590;8.854;2022-07-06T02:39:44;0.70;;;0.70;;
18224;SDS011;9237;48.590;8.854;2022-07-06T02:42:11;0.70;;;0.70;;
18224;SDS011;9237;48.590;8.854;2022-07-06T02:44:38;0.70;;;0.70;;
18224;SDS011;9237;48.590;8.854;2022-07-06T02:47:06;0.70;;;0.70;;
18224;SDS011;9237;48.590;8.854;2022-07-06T02:49:33;0.70;;;0.70;;
18224;SDS011;9237;48.590;8.854;2022-07-06T02:52:00;0.70;;;0.70;;
18224;SDS011;9237;48.590;8.854;2022-07-06T02:54:27;0.70;;;0.70;;
18224;SDS011;9237;48.590;8.854;2022-07-06T02:56:53;0.70;;;0.70;;
18224;SDS011;9237;48.590;8.854;2022-07-06T02:59:20;0.70;;;0.70;;
18224;SDS011;9237;48.590;8.854;2022-07-06T03:01:47;0.70;;;0.70;;
18224;SDS011;9237;48.590;8.854;2022-07-06T03:04:15;0.67;;;0.67;;
18224;SDS011;9237;48.590;8.854;2022-07-06T03:06:42;0.70;;;0.70;;
18224;SDS011;9237;48.590;8.854;2022-07-06T03:09:09;0.77;;;0.77;;
18224;SDS011;9237;48.590;8.854;2022-07-06T03:11:36;0.70;;;0.70;;
18224;SDS011;9237;48.590;8.854;2022-07-06T03:14:03;0.80;;;0.80;;
18224;SDS011;9237;48.590;8.854;2022-07-06T03:16:30;0.63;;;0.63;;
18224;SDS011;9237;48.590;8.854;2022-07-06T03:18:57;0.70;;;0.70;;
18224;SDS011;9237;48.590;8.854;2022-07-06T03:21:25;0.70;;;0.70;;
18224;SDS011;9237;48.590;8.854;2022-07-06T03:23:52;0.70;;;0.70;;
18224;SDS011;9237;48.590;8.854;2022-07-06T03:26:19;0.70;;;0.70;;
18224;SDS011;9237;48.590;8.854;2022-07-06T03:28:46;0.77;;;0.77;;
18224;SDS011;9237;48.590;8.854;2022-07-06T03:31:13;0.70;;;0.70;;
18224;SDS011;9237;48.590;8.854;2022-07-06T03:33:40;0.70;;;0.70;;
18224;SDS011;9237;48.590;8.854;2022-07-06T03:36:07;0.70;;;0.70;;
18224;SDS011;9237;48.590;8.854;2022-07-06T03:38:35;0.70;;;0.70;;
18224;SDS011;9237;48.590;8.854;2022-07-06T03:41:02;0.70;;;0.70;;
18224;SDS011;9237;48.590;8.854;2022-07-06T03:43:29;0.70;;;0.70;;
18224;SDS011;9237;48.590;8.854;2022-07-06T03:45:56;0.70;;;0.70;;
18224;SDS011;9237;48.590;8.854;2022-07-06T03:48:23;0.70;;;0.70;;
18224;SDS011;9237;48.590;8.854;2022-07-06T03:50:50;0.70;;;0.70;;
18224;SDS011;9237;48.590;8.854;2022-07-06T03:53:17;0.70;;;0.70;;
18224;SDS011;9237;48.590;8.854;2022-07-06T03:55:45;0.70;;;0.70;;
18224;SDS011;9237;48.590;8.854;2022-07-06T03:58:33;0.70;;;0.70;;
18224;SDS011;9237;48.590;8.854;2022-07-06T04:01:03;0.60;;;0.60;;
18224;SDS011;9237;48.590;8.854;2022-07-06T04:03:30;0.70;;;0.70;;
18224;SDS011;9237;48.590;8.854;2022-07-06T04:05:56;0.63;;;0.63;;
18224;SDS011;9237;48.590;8.854;2022-07-06T04:08:23;0.70;;;0.70;;
18224;SDS011;9237;48.590;8.854;2022-07-06T04:10:52;0.70;;;0.70;;
18224;SDS011;9237;48.590;8.854;2022-07-06T04:13:18;0.70;;;0.70;;
18224;SDS011;9237;48.590;8.854;2022-07-06T04:15:45;0.60;;;0.60;;
18224;SDS011;9237;48.590;8.854;2022-07-06T04:18:12;0.63;;;0.63;;
18224;SDS011;9237;48.590;8.854;2022-07-06T04:20:39;0.70;;;0.70;;
18224;SDS011;9237;48.590;8.854;2022-07-06T04:23:06;0.70;;;0.70;;
18224;SDS011;9237;48.590;8.854;2022-07-06T04:25:33;0.60;;;0.60;;
18224;SDS011;9237;48.590;8.854;2022-07-06T04:28:02;0.70;;;0.70;;
18224;SDS011;9237;48.590;8.854;2022-07-06T04:30:29;0.70;;;0.70;;
18224;SDS011;9237;48.590;8.854;2022-07-06T04:32:56;0.70;;;0.70;;
18224;SDS011;9237;48.590;8.854;2022-07-06T04:35:23;0.70;;;0.70;;
18224;SDS011;9237;48.590;8.854;2022-07-06T04:37:50;0.70;;;0.70;;
18224;SDS011;9237;48.590;8.854;2022-07-06T04:40:17;0.70;;;0.70;;
18224;SDS011;9237;48.590;8.854;2022-07-06T04:42:44;0.70;;;0.70;;
18224;SDS011;9237;48.590;8.854;2022-07-06T04:45:12;0.70;;;0.70;;
18224;SDS011;9237;48.590;8.854;2022-07-06T04:47:39;0.70;;;0.70;;
18224;SDS011;9237;48.590;8.854;2022-07-06T04:50:06;0.70;;;0.70;;
18224;SDS011;9237;48.590;8.854;2022-07-06T04:52:33;0.70;;;0.70;;
18224;SDS011;9237;48.590;8.854;2022-07-06T04:55:00;0.67;;;0.67;;
18224;SDS011;9237;48.590;8.854;2022-07-06T04:57:29;0.70;;;0.70;;
18224;SDS011;9237;48.590;8.854;2022-07-06T04:59:56;0.70;;;0.70;;
18224;SDS011;9237;48.590;8.854;2022-07-06T05:02:24;0.70;;;0.70;;
18224;SDS011;9237;48.590;8.854;2022-07-06T05:04:51;0.70;;;0.70;;
18224;SDS011;9237;48.590;8.854;2022-07-06T05:07:18;0.70;;;0.70;;
18224;SDS011;9237;48.590;8.854;2022-07-06T05:09:45;0.60;;;0.60;;
18224;SDS011;9237;48.590;8.854;2022-07-06T05:12:12;0.70;;;0.70;;
18224;SDS011;9237;48.590;8.854;2022-07-06T05:14:39;0.63;;;0.63;;
18224;SDS011;9237;48.590;8.854;2022-07-06T05:17:06;0.60;;;0.60;;
18224;SDS011;9237;48.590;8.854;2022-07-06T05:19:34;0.63;;;0.63;;
18224;SDS011;9237;48.590;8.854;2022-07-06T05:22:01;0.70;;;0.70;;
18224;SDS011;9237;48.590;8.854;2022-07-06T05:24:28;0.60;;;0.60;;
18224;SDS011;9237;48.590;8.854;2022-07-06T05:26:55;0.70;;;0.70;;
18224;SDS011;9237;48.590;8.854;2022-07-06T05:29:22;0.60;;;0.60;;
18224;SDS011;9237;48.590;8.854;2022-07-06T05:31:48;0.60;;;0.60;;
18224;SDS011;9237;48.590;8.854;2022-07-06T05:34:16;0.60;;;0.60;;
18224;SDS011;9237;48.590;8.854;2022-07-06T05:36:44;0.60;;;0.60;;
18224;SDS011;9237;48.590;8.854;2022-07-06T05:39:11;0.60;;;0.60;;
18224;SDS011;9237;48.590;8.854;2022-07-06T05:41:38;0.60;;;0.60;;
18224;SDS011;9237;48.590;8.854;2022-07-06T05:44:05;0.60;;;0.60;;
18224;SDS011;9237;48.590;8.854;2022-07-06T05:46:32;0.60;;;0.60;;
18224;SDS011;9237;48.590;8.854;2022-07-06T05:48:59;0.70;;;0.70;;
18224;SDS011;9237;48.590;8.854;2022-07-06T05:51:44;0.60;;;0.60;;
18224;SDS011;9237;48.590;8.854;2022-07-06T05:54:11;0.60;;;0.60;;
18224;SDS011;9237;48.590;8.854;2022-07-06T05:56:38;0.60;;;0.60;;
18224;SDS011;9237;48.590;8.854;2022-07-06T05:59:05;0.70;;;0.70;;
18224;SDS011;9237;48.590;8.854;2022-07-06T06:01:32;0.60;;;0.60;;
18224;SDS011;9237;48.590;8.854;2022-07-06T06:03:59;0.60;;;0.60;;
18224;SDS011;9237;48.590;8.854;2022-07-06T06:06:25;0.60;;;0.60;;
18224;SDS011;9237;48.590;8.854;2022-07-06T06:08:54;0.50;;;0.50;;
18224;SDS011;9237;48.590;8.854;2022-07-06T06:11:21;0.60;;;0.60;;
18224;SDS011;9237;48.590;8.854;2022-07-06T06:13:48;0.60;;;0.60;;
18224;SDS011;9237;48.590;8.854;2022-07-06T06:16:15;0.60;;;0.60;;
18224;SDS011;9237;48.590;8.854;2022-07-06T06:18:41;0.60;;;0.60;;
18224;SDS011;9237;48.590;8.854;2022-07-06T06:21:09;0.60;;;0.60;;
18224;SDS011;9237;48.590;8.854;2022-07-06T06:23:36;0.60;;;0.60;;
18224;SDS011;9237;48.590;8.854;2022-07-06T06:26:04;0.60;;;0.60;;
18224;SDS011;9237;48.590;8.854;2022-07-06T06:28:31;0.50;;;0.50;;
18224;SDS011;9237;48.590;8.854;2022-07-06T06:30:58;0.60;;;0.60;;
18224;SDS011;9237;48.590;8.854;2022-07-06T06:33:25;0.50;;;0.50;;
18224;SDS011;9237;48.590;8.854;2022-07-06T06:35:52;0.50;;;0.50;;
18224;SDS011;9237;48.590;8.854;2022-07-06T06:38:20;0.50;;;0.50;;
18224;SDS011;9237;48.590;8.854;2022-07-06T06:40:50;0.50;;;0.50;;
18224;SDS011;9237;48.590;8.854;2022-07-06T06:43:19;0.50;;;0.50;;
18224;SDS011;9237;48.590;8.854;2022-07-06T06:45:46;0.50;;;0.50;;
18224;SDS011;9237;48.590;8.854;2022-07-06T06:48:13;0.50;;;0.50;;
18224;SDS011;9237;48.590;8.854;2022-07-06T06:50:40;0.50;;;0.50;;
18224;SDS011;9237;48.590;8.854;2022-07-06T06:53:07;0.50;;;0.50;;
18224;SDS011;9237;48.590;8.854;2022-07-06T06:55:34;0.50;;;0.50;;
18224;SDS011;9237;48.590;8.854;2022-07-06T06:58:01;0.50;;;0.50;;
18224;SDS011;9237;48.590;8.854;2022-07-06T07:00:29;0.50;;;0.50;;
18224;SDS011;9237;48.590;8.854;2022-07-06T07:02:56;0.50;;;0.50;;
18224;SDS011;9237;48.590;8.854;2022-07-06T07:05:23;0.50;;;0.50;;
18224;SDS011;9237;48.590;8.854;2022-07-06T07:07:50;0.50;;;0.50;;
18224;SDS011;9237;48.590;8.854;2022-07-06T07:10:17;0.50;;;0.50;;
18224;SDS011;9237;48.590;8.854;2022-07-06T07:12:44;0.50;;;0.50;;
18224;SDS011;9237;48.590;8.854;2022-07-06T07:15:11;0.50;;;0.50;;
18224;SDS011;9237;48.590;8.854;2022-07-06T07:17:40;0.50;;;0.50;;
18224;SDS011;9237;48.590;8.854;2022-07-06T07:20:07;0.50;;;0.50;;
18224;SDS011;9237;48.590;8.854;2022-07-06T07:22:35;0.50;;;0.50;;
18224;SDS011;9237;48.590;8.854;2022-07-06T07:25:02;0.50;;;0.50;;
18224;SDS011;9237;48.590;8.854;2022-07-06T07:27:29;0.50;;;0.50;;
18224;SDS011;9237;48.590;8.854;2022-07-06T07:29:56;0.50;;;0.50;;
18224;SDS011;9237;48.590;8.854;2022-07-06T07:32:22;0.50;;;0.50;;
18224;SDS011;9237;48.590;8.854;2022-07-06T07:34:51;0.50;;;0.50;;
18224;SDS011;9237;48.590;8.854;2022-07-06T07:37:18;0.40;;;0.40;;
18224;SDS011;9237;48.590;8.854;2022-07-06T07:39:44;0.40;;;0.40;;
18224;SDS011;9237;48.590;8.854;2022-07-06T07:42:11;0.40;;;0.40;;
18224;SDS011;9237;48.590;8.854;2022-07-06T07:44:38;0.40;;;0.40;;
18224;SDS011;9237;48.590;8.854;2022-07-06T07:47:06;0.40;;;0.40;;
18224;SDS011;9237;48.590;8.854;2022-07-06T07:49:33;0.40;;;0.40;;
18224;SDS011;9237;48.590;8.854;2022-07-06T07:52:01;0.40;;;0.40;;
18224;SDS011;9237;48.590;8.854;2022-07-06T07:54:28;0.40;;;0.40;;
18224;SDS011;9237;48.590;8.854;2022-07-06T07:56:55;0.40;;;0.40;;
18224;SDS011;9237;48.590;8.854;2022-07-06T07:59:22;0.40;;;0.40;;
18224;SDS011;9237;48.590;8.854;2022-07-06T08:01:49;0.50;;;0.50;;
18224;SDS011;9237;48.590;8.854;2022-07-06T08:04:15;0.50;;;0.50;;
18224;SDS011;9237;48.590;8.854;2022-07-06T08:06:43;0.43;;;0.43;;
18224;SDS011;9237;48.590;8.854;2022-07-06T08:09:11;0.43;;;0.43;;
18224;SDS011;9237;48.590;8.854;2022-07-06T08:11:38;0.40;;;0.40;;
18224;SDS011;9237;48.590;8.854;2022-07-06T08:14:05;0.50;;;0.50;;
18224;SDS011;9237;48.590;8.854;2022-07-06T08:16:32;0.43;;;0.43;;
18224;SDS011;9237;48.590;8.854;2022-07-06T08:18:58;0.43;;;0.43;;
18224;SDS011;9237;48.590;8.854;2022-07-06T08:21:26;0.40;;;0.40;;
18224;SDS011;9237;48.590;8.854;2022-07-06T08:23:53;0.50;;;0.50;;
18224;SDS011;9237;48.590;8.854;2022-07-06T08:26:22;0.40;;;0.40;;
18224;SDS011;9237;48.590;8.854;2022-07-06T08:28:50;0.40;;;0.40;;
18224;SDS011;9237;48.590;8.854;2022-07-06T08:31:17;0.40;;;0.40;;
18224;SDS011;9237;48.590;8.854;2022-07-06T08:33:44;0.40;;;0.40;;
18224;SDS011;9237;48.590;8.854;2022-07-06T08:36:11;0.40;;;0.40;;
18224;SDS011;9237;48.590;8.854;2022-07-06T08:38:38;0.40;;;0.40;;
18224;SDS011;9237;48.590;8.854;2022-07-06T08:41:05;0.40;;;0.40;;
18224;SDS011;9237;48.590;8.854;2022-07-06T08:43:34;0.40;;;0.40;;
18224;SDS011;9237;48.590;8.854;2022-07-06T08:46:02;0.40;;;0.40;;
18224;SDS011;9237;48.590;8.854;2022-07-06T08:48:31;0.40;;;0.40;;
18224;SDS011;9237;48.590;8.854;2022-07-06T08:51:03;0.40;;;0.40;;
18224;SDS011;9237;48.590;8.854;2022-07-06T08:53:31;0.40;;;0.40;;
18224;SDS011;9237;48.590;8.854;2022-07-06T08:55:58;0.40;;;0.40;;
18224;SDS011;9237;48.590;8.854;2022-07-06T08:58:26;0.40;;;0.40;;
18224;SDS011;9237;48.590;8.854;2022-07-06T09:00:55;0.40;;;0.40;;
18224;SDS011;9237;48.590;8.854;2022-07-06T09:03:22;0.40;;;0.40;;
18224;SDS011;9237;48.590;8.854;2022-07-06T09:05:50;0.40;;;0.40;;
18224;SDS011;9237;48.590;8.854;2022-07-06T09:08:18;0.40;;;0.40;;
18224;SDS011;9237;48.590;8.854;2022-07-06T09:10:46;0.40;;;0.40;;
18224;SDS011;9237;48.590;8.854;2022-07-06T09:13:13;0.30;;;0.30;;
18224;SDS011;9237;48.590;8.854;2022-07-06T09:15:40;0.40;;;0.40;;
18224;SDS011;9237;48.590;8.854;2022-07-06T09:18:08;0.40;;;0.40;;
18224;SDS011;9237;48.590;8.854;2022-07-06T09:20:35;0.40;;;0.40;;
18224;SDS011;9237;48.590;8.854;2022-07-06T09:23:03;0.40;;;0.40;;
18224;SDS011;9237;48.590;8.854;2022-07-06T09:25:31;0.40;;;0.40;;
18224;SDS011;9237;48.590;8.854;2022-07-06T09:27:59;0.38;;;0.38;;
18224;SDS011;9237;48.590;8.854;2022-07-06T09:30:28;0.40;;;0.40;;
18224;SDS011;9237;48.590;8.854;2022-07-06T09:32:55;0.30;;;0.30;;
18224;SDS011;9237;48.590;8.854;2022-07-06T09:35:25;0.40;;;0.40;;
18224;SDS011;9237;48.590;8.854;2022-07-06T09:38:00;0.30;;;0.30;;
18224;SDS011;9237;48.590;8.854;2022-07-06T09:40:28;0.30;;;0.30;;
18224;SDS011;9237;48.590;8.854;2022-07-06T09:43:09;0.30;;;0.30;;
18224;SDS011;9237;48.590;8.854;2022-07-06T09:45:37;0.30;;;0.30;;
18224;SDS011;9237;48.590;8.854;2022-07-06T09:48:06;0.30;;;0.30;;
18224;SDS011;9237;48.590;8.854;2022-07-06T09:50:45;0.28;;;0.28;;
18224;SDS011;9237;48.590;8.854;2022-07-06T09:53:13;0.25;;;0.25;;
18224;SDS011;9237;48.590;8.854;2022-07-06T09:55:42;0.30;;;0.30;;
18224;SDS011;9237;48.590;8.854;2022-07-06T09:58:10;0.30;;;0.30;;
18224;SDS011;9237;48.590;8.854;2022-07-06T10:00:37;0.30;;;0.30;;
18224;SDS011;9237;48.590;8.854;2022-07-06T10:03:04;0.30;;;0.30;;
18224;SDS011;9237;48.590;8.854;2022-07-06T10:05:31;0.30;;;0.30;;
18224;SDS011;9237;48.590;8.854;2022-07-06T10:08:00;0.30;;;0.30;;
18224;SDS011;9237;48.590;8.854;2022-07-06T10:10:31;0.30;;;0.30;;
18224;SDS011;9237;48.590;8.854;2022-07-06T10:12:59;0.30;;;0.30;;
18224;SDS011;9237;48.590;8.854;2022-07-06T10:15:27;0.40;;;0.40;;
18224;SDS011;9237;48.590;8.854;2022-07-06T10:17:57;0.30;;;0.30;;
18224;SDS011;9237;48.590;8.854;2022-07-06T10:20:25;0.40;;;0.40;;
18224;SDS011;9237;48.590;8.854;2022-07-06T10:22:57;0.40;;;0.40;;
18224;SDS011;9237;48.590;8.854;2022-07-06T10:25:27;0.40;;;0.40;;
18224;SDS011;9237;48.590;8.854;2022-07-06T10:27:55;0.50;;;0.50;;
18224;SDS011;9237;48.590;8.854;2022-07-06T10:30:22;0.40;;;0.40;;
18224;SDS011;9237;48.590;8.854;2022-07-06T10:32:50;0.40;;;0.40;;
18224;SDS011;9237;48.590;8.854;2022-07-06T10:35:17;0.40;;;0.40;;
18224;SDS011;9237;48.590;8.854;2022-07-06T10:37:46;0.40;;;0.40;;
18224;SDS011;9237;48.590;8.854;2022-07-06T10:40:31;0.40;;;0.40;;
18224;SDS011;9237;48.590;8.854;2022-07-06T10:43:16;0.40;;;0.40;;
18224;SDS011;9237;48.590;8.854;2022-07-06T10:45:50;0.40;;;0.40;;
18224;SDS011;9237;48.590;8.854;2022-07-06T10:48:18;0.40;;;0.40;;
18224;SDS011;9237;48.590;8.854;2022-07-06T10:50:48;0.40;;;0.40;;
18224;SDS011;9237;48.590;8.854;2022-07-06T10:53:20;0.45;;;0.45;;
18224;SDS011;9237;48.590;8.854;2022-07-06T10:55:49;0.50;;;0.50;;
18224;SDS011;9237;48.590;8.854;2022-07-06T11:01:02;0.40;;;0.40;;
18224;SDS011;9237;48.590;8.854;2022-07-06T11:03:38;0.43;;;0.43;;
18224;SDS011;9237;48.590;8.854;2022-07-06T11:06:08;0.50;;;0.50;;
18224;SDS011;9237;48.590;8.854;2022-07-06T11:08:51;0.50;;;0.50;;
18224;SDS011;9237;48.590;8.854;2022-07-06T11:11:21;0.50;;;0.50;;
18224;SDS011;9237;48.590;8.854;2022-07-06T11:13:53;0.47;;;0.47;;
18224;SDS011;9237;48.590;8.854;2022-07-06T11:16:22;0.40;;;0.40;;
18224;SDS011;9237;48.590;8.854;2022-07-06T11:18:59;0.40;;;0.40;;
18224;SDS011;9237;48.590;8.854;2022-07-06T11:21:39;0.40;;;0.40;;
18224;SDS011;9237;48.590;8.854;2022-07-06T11:24:15;0.40;;;0.40;;
18224;SDS011;9237;48.590;8.854;2022-07-06T11:26:43;0.40;;;0.40;;
18224;SDS011;9237;48.590;8.854;2022-07-06T11:29:12;0.45;;;0.45;;
18224;SDS011;9237;48.590;8.854;2022-07-06T11:31:40;0.43;;;0.43;;
18224;SDS011;9237;48.590;8.854;2022-07-06T11:34:08;0.40;;;0.40;;
18224;SDS011;9237;48.590;8.854;2022-07-06T11:36:38;0.40;;;0.40;;
18224;SDS011;9237;48.590;8.854;2022-07-06T11:39:06;0.40;;;0.40;;
18224;SDS011;9237;48.590;8.854;2022-07-06T11:41:34;0.40;;;0.40;;
18224;SDS011;9237;48.590;8.854;2022-07-06T11:44:02;0.40;;;0.40;;
18224;SDS011;9237;48.590;8.854;2022-07-06T11:46:30;0.40;;;0.40;;
18224;SDS011;9237;48.590;8.854;2022-07-06T11:48:59;0.40;;;0.40;;
18224;SDS011;9237;48.590;8.854;2022-07-06T11:51:28;0.47;;;0.47;;
18224;SDS011;9237;48.590;8.854;2022-07-06T11:53:57;0.47;;;0.47;;
18224;SDS011;9237;48.590;8.854;2022-07-06T11:56:25;0.50;;;0.50;;
18224;SDS011;9237;48.590;8.854;2022-07-06T11:58:56;0.50;;;0.50;;
18224;SDS011;9237;48.590;8.854;2022-07-06T12:01:24;0.50;;;0.50;;
18224;SDS011;9237;48.590;8.854;2022-07-06T12:03:52;0.50;;;0.50;;
18224;SDS011;9237;48.590;8.854;2022-07-06T12:06:20;0.50;;;0.50;;
18224;SDS011;9237;48.590;8.854;2022-07-06T12:08:49;0.50;;;0.50;;
18224;SDS011;9237;48.590;8.854;2022-07-06T12:11:18;0.40;;;0.40;;
18224;SDS011;9237;48.590;8.854;2022-07-06T12:13:46;0.50;;;0.50;;
18224;SDS011;9237;48.590;8.854;2022-07-06T12:16:15;0.40;;;0.40;;
18224;SDS011;9237;48.590;8.854;2022-07-06T12:18:42;0.40;;;0.40;;
18224;SDS011;9237;48.590;8.854;2022-07-06T12:21:11;0.40;;;0.40;;
18224;SDS011;9237;48.590;8.854;2022-07-06T12:23:43;0.40;;;0.40;;
18224;SDS011;9237;48.590;8.854;2022-07-06T12:26:11;0.40;;;0.40;;
18224;SDS011;9237;48.590;8.854;2022-07-06T12:28:39;0.40;;;0.40;;
18224;SDS011;9237;48.590;8.854;2022-07-06T12:31:06;0.45;;;0.45;;
18224;SDS011;9237;48.590;8.854;2022-07-06T12:33:35;0.40;;;0.40;;
18224;SDS011;9237;48.590;8.854;2022-07-06T12:36:08;0.40;;;0.40;;
18224;SDS011;9237;48.590;8.854;2022-07-06T12:38:36;0.40;;;0.40;;
18224;SDS011;9237;48.590;8.854;2022-07-06T12:41:11;0.40;;;0.40;;
18224;SDS011;9237;48.590;8.854;2022-07-06T12:43:49;0.40;;;0.40;;
18224;SDS011;9237;48.590;8.854;2022-07-06T12:46:27;0.30;;;0.30;;
18224;SDS011;9237;48.590;8.854;2022-07-06T12:48:57;0.40;;;0.40;;
18224;SDS011;9237;48.590;8.854;2022-07-06T12:51:27;0.40;;;0.40;;
18224;SDS011;9237;48.590;8.854;2022-07-06T12:59:32;0.40;;;0.40;;
18224;SDS011;9237;48.590;8.854;2022-07-06T13:02:00;0.30;;;0.30;;
18224;SDS011;9237;48.590;8.854;2022-07-06T13:04:29;0.30;;;0.30;;
18224;SDS011;9237;48.590;8.854;2022-07-06T13:06:59;0.30;;;0.30;;
18224;SDS011;9237;48.590;8.854;2022-07-06T13:09:27;0.40;;;0.40;;
18224;SDS011;9237;48.590;8.854;2022-07-06T13:11:55;0.40;;;0.40;;
18224;SDS011;9237;48.590;8.854;2022-07-06T13:14:22;0.40;;;0.40;;
18224;SDS011;9237;48.590;8.854;2022-07-06T13:16:49;0.40;;;0.40;;
18224;SDS011;9237;48.590;8.854;2022-07-06T13:19:16;0.40;;;0.40;;
18224;SDS011;9237;48.590;8.854;2022-07-06T13:21:44;0.40;;;0.40;;
18224;SDS011;9237;48.590;8.854;2022-07-06T13:24:11;0.30;;;0.30;;
18224;SDS011;9237;48.590;8.854;2022-07-06T13:26:38;0.30;;;0.30;;
18224;SDS011;9237;48.590;8.854;2022-07-06T13:29:05;0.40;;;0.40;;
18224;SDS011;9237;48.590;8.854;2022-07-06T13:31:32;0.30;;;0.30;;
18224;SDS011;9237;48.590;8.854;2022-07-06T13:33:59;0.30;;;0.30;;
18224;SDS011;9237;48.590;8.854;2022-07-06T13:36:26;0.30;;;0.30;;
18224;SDS011;9237;48.590;8.854;2022-07-06T13:38:54;0.40;;;0.40;;
18224;SDS011;9237;48.590;8.854;2022-07-06T13:41:21;0.30;;;0.30;;
18224;SDS011;9237;48.590;8.854;2022-07-06T13:43:48;0.30;;;0.30;;
18224;SDS011;9237;48.590;8.854;2022-07-06T13:46:15;0.30;;;0.30;;
18224;SDS011;9237;48.590;8.854;2022-07-06T13:48:43;0.30;;;0.30;;
18224;SDS011;9237;48.590;8.854;2022-07-06T13:51:10;0.30;;;0.30;;
18224;SDS011;9237;48.590;8.854;2022-07-06T13:53:37;0.30;;;0.30;;
18224;SDS011;9237;48.590;8.854;2022-07-06T13:56:05;0.40;;;0.40;;
18224;SDS011;9237;48.590;8.854;2022-07-06T13:58:33;0.30;;;0.30;;
18224;SDS011;9237;48.590;8.854;2022-07-06T14:01:00;0.30;;;0.30;;
18224;SDS011;9237;48.590;8.854;2022-07-06T14:03:26;0.30;;;0.30;;
18224;SDS011;9237;48.590;8.854;2022-07-06T14:05:55;0.30;;;0.30;;
18224;SDS011;9237;48.590;8.854;2022-07-06T14:08:23;0.30;;;0.30;;
18224;SDS011;9237;48.590;8.854;2022-07-06T14:10:50;0.30;;;0.30;;
18224;SDS011;9237;48.590;8.854;2022-07-06T14:13:18;0.30;;;0.30;;
18224;SDS011;9237;48.590;8.854;2022-07-06T14:15:45;0.30;;;0.30;;
18224;SDS011;9237;48.590;8.854;2022-07-06T14:18:12;0.30;;;0.30;;
18224;SDS011;9237;48.590;8.854;2022-07-06T14:20:42;0.30;;;0.30;;
18224;SDS011;9237;48.590;8.854;2022-07-06T14:23:09;0.40;;;0.40;;
18224;SDS011;9237;48.590;8.854;2022-07-06T14:25:36;0.40;;;0.40;;
18224;SDS011;9237;48.590;8.854;2022-07-06T14:28:03;0.30;;;0.30;;
18224;SDS011;9237;48.590;8.854;2022-07-06T14:30:32;0.40;;;0.40;;
18224;SDS011;9237;48.590;8.854;2022-07-06T14:33:01;0.30;;;0.30;;
18224;SDS011;9237;48.590;8.854;2022-07-06T14:35:32;0.30;;;0.30;;
18224;SDS011;9237;48.590;8.854;2022-07-06T14:38:00;0.40;;;0.40;;
18224;SDS011;9237;48.590;8.854;2022-07-06T14:40:31;0.40;;;0.40;;
18224;SDS011;9237;48.590;8.854;2022-07-06T14:42:58;0.30;;;0.30;;
18224;SDS011;9237;48.590;8.854;2022-07-06T14:45:37;0.40;;;0.40;;
18224;SDS011;9237;48.590;8.854;2022-07-06T14:48:04;0.40;;;0.40;;
18224;SDS011;9237;48.590;8.854;2022-07-06T14:50:32;0.40;;;0.40;;
18224;SDS011;9237;48.590;8.854;2022-07-06T14:52:59;0.40;;;0.40;;
18224;SDS011;9237;48.590;8.854;2022-07-06T14:55:26;0.40;;;0.40;;
18224;SDS011;9237;48.590;8.854;2022-07-06T14:57:53;0.40;;;0.40;;
18224;SDS011;9237;48.590;8.854;2022-07-06T15:00:21;0.40;;;0.40;;
18224;SDS011;9237;48.590;8.854;2022-07-06T15:02:49;0.40;;;0.40;;
18224;SDS011;9237;48.590;8.854;2022-07-06T15:05:16;0.40;;;0.40;;
18224;SDS011;9237;48.590;8.854;2022-07-06T15:07:43;0.40;;;0.40;;
18224;SDS011;9237;48.590;8.854;2022-07-06T15:10:13;0.50;;;0.50;;
18224;SDS011;9237;48.590;8.854;2022-07-06T15:12:40;0.40;;;0.40;;
18224;SDS011;9237;48.590;8.854;2022-07-06T15:15:07;0.47;;;0.47;;